sensor_id;sensor_type;location;lat;lon;timestamp;temperature;humidity
22850;DHT22;11591;44.792;10.358;2023-03-03T00:02:24;7.30;99.90
22850;DHT22;11591;44.792;10.358;2023-03-03T00:04:50;7.30;99.90
22850;DHT22;11591;44.792;10.358;2023-03-03T00:07:16;7.40;99.90
22850;DHT22;11591;44.792;10.358;2023-03-03T00:09:48;7.40;99.90
22850;DHT22;11591;44.792;10.358;2023-03-03T00:12:24;7.40;99.90
22850;DHT22;11591;44.792;10.358;2023-03-03T00:14:50;7.40;99.90
22850;DHT22;11591;44.792;10.358;2023-03-03T00:17:27;7.40;99.90
22850;DHT22;11591;44.792;10.358;2023-03-03T00:19:54;7.40;99.90
22850;DHT22;11591;44.792;10.358;2023-03-03T00:22:32;7.40;99.90
22850;DHT22;11591;44.792;10.358;2023-03-03T00:27:48;7.40;99.90
22850;DHT22;11591;44.792;10.358;2023-03-03T00:30:23;7.40;99.90
22850;DHT22;11591;44.792;10.358;2023-03-03T00:32:53;7.40;99.90
22850;DHT22;11591;44.792;10.358;2023-03-03T00:35:32;7.40;99.90
22850;DHT22;11591;44.792;10.358;2023-03-03T00:38:15;7.40;99.90
22850;DHT22;11591;44.792;10.358;2023-03-03T00:40:42;7.40;99.90
22850;DHT22;11591;44.792;10.358;2023-03-03T00:48:27;7.40;99.90
22850;DHT22;11591;44.792;10.358;2023-03-03T00:50:55;7.40;99.90
22850;DHT22;11591;44.792;10.358;2023-03-03T00:53:23;7.30;99.90
22850;DHT22;11591;44.792;10.358;2023-03-03T00:55:50;7.30;99.90
22850;DHT22;11591;44.792;10.358;2023-03-03T00:58:16;7.30;99.90
22850;DHT22;11591;44.792;10.358;2023-03-03T01:00:46;7.20;99.90
22850;DHT22;11591;44.792;10.358;2023-03-03T01:03:18;7.20;99.90
22850;DHT22;11591;44.792;10.358;2023-03-03T01:05:45;7.20;99.90
22850;DHT22;11591;44.792;10.358;2023-03-03T01:08:11;7.10;99.90
22850;DHT22;11591;44.792;10.358;2023-03-03T01:10:44;7.10;99.90
22850;DHT22;11591;44.792;10.358;2023-03-03T01:13:12;7.10;99.90
22850;DHT22;11591;44.792;10.358;2023-03-03T01:15:38;7.10;99.90
22850;DHT22;11591;44.792;10.358;2023-03-03T01:18:05;7.00;99.90
22850;DHT22;11591;44.792;10.358;2023-03-03T01:20:31;7.00;99.90
22850;DHT22;11591;44.792;10.358;2023-03-03T01:22:57;7.00;99.90
22850;DHT22;11591;44.792;10.358;2023-03-03T01:25:22;6.90;99.90
22850;DHT22;11591;44.792;10.358;2023-03-03T01:27:48;6.90;99.90
22850;DHT22;11591;44.792;10.358;2023-03-03T01:30:14;6.90;99.90
22850;DHT22;11591;44.792;10.358;2023-03-03T01:32:40;6.90;99.90
22850;DHT22;11591;44.792;10.358;2023-03-03T01:35:06;6.90;99.90
22850;DHT22;11591;44.792;10.358;2023-03-03T01:37:34;6.90;99.90
22850;DHT22;11591;44.792;10.358;2023-03-03T01:40:02;6.90;99.90
22850;DHT22;11591;44.792;10.358;2023-03-03T01:42:28;6.90;99.90
22850;DHT22;11591;44.792;10.358;2023-03-03T01:50:25;6.90;99.90
22850;DHT22;11591;44.792;10.358;2023-03-03T01:52:53;6.90;99.90
22850;DHT22;11591;44.792;10.358;2023-03-03T01:55:27;6.80;99.90
22850;DHT22;11591;44.792;10.358;2023-03-03T01:57:58;6.80;99.90
22850;DHT22;11591;44.792;10.358;2023-03-03T02:00:26;6.80;99.90
22850;DHT22;11591;44.792;10.358;2023-03-03T02:02:53;6.80;99.90
22850;DHT22;11591;44.792;10.358;2023-03-03T02:05:19;6.80;99.90
22850;DHT22;11591;44.792;10.358;2023-03-03T02:07:45;6.80;99.90
22850;DHT22;11591;44.792;10.358;2023-03-03T02:10:15;6.70;99.90
22850;DHT22;11591;44.792;10.358;2023-03-03T02:12:49;6.80;99.90
22850;DHT22;11591;44.792;10.358;2023-03-03T02:17:49;6.70;99.90
22850;DHT22;11591;44.792;10.358;2023-03-03T02:28:27;6.60;99.90
22850;DHT22;11591;44.792;10.358;2023-03-03T02:30:54;6.60;99.90
22850;DHT22;11591;44.792;10.358;2023-03-03T02:33:21;6.50;99.90
22850;DHT22;11591;44.792;10.358;2023-03-03T02:35:46;6.50;99.90
22850;DHT22;11591;44.792;10.358;2023-03-03T02:43:58;6.40;99.90
22850;DHT22;11591;44.792;10.358;2023-03-03T02:46:25;6.40;99.90
22850;DHT22;11591;44.792;10.358;2023-03-03T02:48:50;6.40;99.90
22850;DHT22;11591;44.792;10.358;2023-03-03T02:51:16;6.40;99.90
22850;DHT22;11591;44.792;10.358;2023-03-03T02:53:42;6.40;99.90
22850;DHT22;11591;44.792;10.358;2023-03-03T02:56:08;6.30;99.90
22850;DHT22;11591;44.792;10.358;2023-03-03T02:58:35;6.40;99.90
22850;DHT22;11591;44.792;10.358;2023-03-03T03:01:03;6.30;99.90
22850;DHT22;11591;44.792;10.358;2023-03-03T03:03:29;6.30;99.90
22850;DHT22;11591;44.792;10.358;2023-03-03T03:05:55;6.30;99.90
22850;DHT22;11591;44.792;10.358;2023-03-03T03:08:24;6.30;99.90
22850;DHT22;11591;44.792;10.358;2023-03-03T03:10:50;6.20;99.90
22850;DHT22;11591;44.792;10.358;2023-03-03T03:13:16;6.20;99.90
22850;DHT22;11591;44.792;10.358;2023-03-03T03:15:46;6.10;99.90
22850;DHT22;11591;44.792;10.358;2023-03-03T03:18:13;6.00;99.90
22850;DHT22;11591;44.792;10.358;2023-03-03T03:20:40;6.00;99.90
22850;DHT22;11591;44.792;10.358;2023-03-03T03:23:09;6.00;99.90
22850;DHT22;11591;44.792;10.358;2023-03-03T03:25:35;6.00;99.90
22850;DHT22;11591;44.792;10.358;2023-03-03T03:28:07;6.00;99.90
22850;DHT22;11591;44.792;10.358;2023-03-03T03:30:35;5.90;99.90
22850;DHT22;11591;44.792;10.358;2023-03-03T03:33:01;5.90;99.90
22850;DHT22;11591;44.792;10.358;2023-03-03T03:35:27;5.90;99.90
22850;DHT22;11591;44.792;10.358;2023-03-03T03:37:53;5.90;99.90
22850;DHT22;11591;44.792;10.358;2023-03-03T03:40:20;6.00;99.90
22850;DHT22;11591;44.792;10.358;2023-03-03T03:42:46;5.90;99.90
22850;DHT22;11591;44.792;10.358;2023-03-03T03:45:12;6.00;99.90
22850;DHT22;11591;44.792;10.358;2023-03-03T03:47:44;6.00;99.90
22850;DHT22;11591;44.792;10.358;2023-03-03T03:50:11;6.00;99.90
22850;DHT22;11591;44.792;10.358;2023-03-03T03:52:38;6.00;99.90
22850;DHT22;11591;44.792;10.358;2023-03-03T03:55:05;6.00;99.90
22850;DHT22;11591;44.792;10.358;2023-03-03T03:57:31;5.90;99.90
22850;DHT22;11591;44.792;10.358;2023-03-03T03:59:57;5.90;99.90
22850;DHT22;11591;44.792;10.358;2023-03-03T04:02:23;5.90;99.90
22850;DHT22;11591;44.792;10.358;2023-03-03T04:04:49;5.90;99.90
22850;DHT22;11591;44.792;10.358;2023-03-03T04:07:15;6.00;99.90
22850;DHT22;11591;44.792;10.358;2023-03-03T04:09:41;6.00;99.90
22850;DHT22;11591;44.792;10.358;2023-03-03T04:12:07;6.00;99.90
22850;DHT22;11591;44.792;10.358;2023-03-03T04:14:34;6.00;99.90
22850;DHT22;11591;44.792;10.358;2023-03-03T04:17:00;5.90;99.90
22850;DHT22;11591;44.792;10.358;2023-03-03T04:19:26;5.90;99.90
22850;DHT22;11591;44.792;10.358;2023-03-03T04:21:52;6.00;99.90
22850;DHT22;11591;44.792;10.358;2023-03-03T04:24:17;5.90;99.90
22850;DHT22;11591;44.792;10.358;2023-03-03T04:26:46;6.00;99.90
22850;DHT22;11591;44.792;10.358;2023-03-03T04:29:12;5.90;99.90
22850;DHT22;11591;44.792;10.358;2023-03-03T04:31:40;5.90;99.90
22850;DHT22;11591;44.792;10.358;2023-03-03T04:34:08;5.90;99.90
22850;DHT22;11591;44.792;10.358;2023-03-03T04:36:34;5.90;99.90
22850;DHT22;11591;44.792;10.358;2023-03-03T04:39:01;5.90;99.90
22850;DHT22;11591;44.792;10.358;2023-03-03T04:41:27;5.90;99.90
22850;DHT22;11591;44.792;10.358;2023-03-03T04:43:53;5.80;99.90
22850;DHT22;11591;44.792;10.358;2023-03-03T04:46:19;5.70;99.90
22850;DHT22;11591;44.792;10.358;2023-03-03T04:48:44;5.80;99.90
22850;DHT22;11591;44.792;10.358;2023-03-03T04:51:10;5.70;99.90
22850;DHT22;11591;44.792;10.358;2023-03-03T04:53:37;5.70;99.90
22850;DHT22;11591;44.792;10.358;2023-03-03T04:56:04;5.70;99.90
22850;DHT22;11591;44.792;10.358;2023-03-03T04:58:30;5.70;99.90
22850;DHT22;11591;44.792;10.358;2023-03-03T05:00:57;5.70;99.90
22850;DHT22;11591;44.792;10.358;2023-03-03T05:03:25;5.70;99.90
22850;DHT22;11591;44.792;10.358;2023-03-03T05:05:52;5.70;99.90
22850;DHT22;11591;44.792;10.358;2023-03-03T05:08:17;5.70;99.90
22850;DHT22;11591;44.792;10.358;2023-03-03T05:10:43;5.70;99.90
22850;DHT22;11591;44.792;10.358;2023-03-03T05:13:09;5.70;99.90
22850;DHT22;11591;44.792;10.358;2023-03-03T05:15:36;5.70;99.90
22850;DHT22;11591;44.792;10.358;2023-03-03T05:18:02;5.70;99.90
22850;DHT22;11591;44.792;10.358;2023-03-03T05:20:28;5.70;99.90
22850;DHT22;11591;44.792;10.358;2023-03-03T05:22:53;5.70;99.90
22850;DHT22;11591;44.792;10.358;2023-03-03T05:25:20;5.70;99.90
22850;DHT22;11591;44.792;10.358;2023-03-03T05:27:46;5.70;99.90
22850;DHT22;11591;44.792;10.358;2023-03-03T05:30:12;5.70;99.90
22850;DHT22;11591;44.792;10.358;2023-03-03T05:32:38;5.70;99.90
22850;DHT22;11591;44.792;10.358;2023-03-03T05:35:04;5.70;99.90
22850;DHT22;11591;44.792;10.358;2023-03-03T05:37:30;5.70;99.90
22850;DHT22;11591;44.792;10.358;2023-03-03T05:39:56;5.60;99.90
22850;DHT22;11591;44.792;10.358;2023-03-03T05:42:22;5.60;99.90
22850;DHT22;11591;44.792;10.358;2023-03-03T05:44:47;5.60;99.90
22850;DHT22;11591;44.792;10.358;2023-03-03T05:47:13;5.60;99.90
22850;DHT22;11591;44.792;10.358;2023-03-03T05:49:39;5.60;99.90
22850;DHT22;11591;44.792;10.358;2023-03-03T05:52:05;5.60;99.90
22850;DHT22;11591;44.792;10.358;2023-03-03T05:54:31;5.60;99.90
22850;DHT22;11591;44.792;10.358;2023-03-03T05:56:57;5.60;99.90
22850;DHT22;11591;44.792;10.358;2023-03-03T05:59:26;5.60;99.90
22850;DHT22;11591;44.792;10.358;2023-03-03T06:01:51;5.60;99.90
22850;DHT22;11591;44.792;10.358;2023-03-03T06:04:17;5.60;99.90
22850;DHT22;11591;44.792;10.358;2023-03-03T06:06:43;5.60;99.90
22850;DHT22;11591;44.792;10.358;2023-03-03T06:09:09;5.60;99.90
22850;DHT22;11591;44.792;10.358;2023-03-03T06:11:35;5.70;99.90
22850;DHT22;11591;44.792;10.358;2023-03-03T06:14:02;5.70;99.90
22850;DHT22;11591;44.792;10.358;2023-03-03T06:16:27;5.70;99.90
22850;DHT22;11591;44.792;10.358;2023-03-03T06:18:53;5.70;99.90
22850;DHT22;11591;44.792;10.358;2023-03-03T06:21:19;5.70;99.90
22850;DHT22;11591;44.792;10.358;2023-03-03T06:23:45;5.60;99.90
22850;DHT22;11591;44.792;10.358;2023-03-03T06:26:10;5.70;99.90
22850;DHT22;11591;44.792;10.358;2023-03-03T06:28:36;5.70;99.90
22850;DHT22;11591;44.792;10.358;2023-03-03T06:31:02;5.60;99.90
22850;DHT22;11591;44.792;10.358;2023-03-03T06:33:28;5.70;99.90
22850;DHT22;11591;44.792;10.358;2023-03-03T06:35:54;5.70;99.90
22850;DHT22;11591;44.792;10.358;2023-03-03T06:38:20;5.70;99.90
22850;DHT22;11591;44.792;10.358;2023-03-03T06:40:46;5.70;99.90
22850;DHT22;11591;44.792;10.358;2023-03-03T06:43:12;5.70;99.90
22850;DHT22;11591;44.792;10.358;2023-03-03T06:45:38;5.80;99.90
22850;DHT22;11591;44.792;10.358;2023-03-03T06:48:04;5.80;99.90
22850;DHT22;11591;44.792;10.358;2023-03-03T06:50:30;5.80;99.90
22850;DHT22;11591;44.792;10.358;2023-03-03T06:53:14;5.80;99.90
22850;DHT22;11591;44.792;10.358;2023-03-03T06:55:41;5.80;99.90
22850;DHT22;11591;44.792;10.358;2023-03-03T06:58:17;5.90;99.90
22850;DHT22;11591;44.792;10.358;2023-03-03T07:00:49;5.90;99.90
22850;DHT22;11591;44.792;10.358;2023-03-03T07:03:23;5.90;99.90
22850;DHT22;11591;44.792;10.358;2023-03-03T07:05:49;5.90;99.90
22850;DHT22;11591;44.792;10.358;2023-03-03T07:08:19;6.00;99.90
22850;DHT22;11591;44.792;10.358;2023-03-03T07:10:46;6.00;99.90
22850;DHT22;11591;44.792;10.358;2023-03-03T07:13:27;6.00;99.90
22850;DHT22;11591;44.792;10.358;2023-03-03T07:15:55;6.10;99.90
22850;DHT22;11591;44.792;10.358;2023-03-03T07:18:50;6.10;99.90
22850;DHT22;11591;44.792;10.358;2023-03-03T07:23:48;6.20;99.90
22850;DHT22;11591;44.792;10.358;2023-03-03T07:26:20;6.30;99.90
22850;DHT22;11591;44.792;10.358;2023-03-03T07:28:59;6.30;99.90
22850;DHT22;11591;44.792;10.358;2023-03-03T07:31:34;6.40;99.90
22850;DHT22;11591;44.792;10.358;2023-03-03T07:36:45;6.50;99.90
22850;DHT22;11591;44.792;10.358;2023-03-03T07:41:45;6.70;99.90
22850;DHT22;11591;44.792;10.358;2023-03-03T07:44:20;6.80;99.90
22850;DHT22;11591;44.792;10.358;2023-03-03T07:46:47;6.90;99.90
22850;DHT22;11591;44.792;10.358;2023-03-03T07:51:45;7.00;99.90
22850;DHT22;11591;44.792;10.358;2023-03-03T07:57:14;7.10;99.90
22850;DHT22;11591;44.792;10.358;2023-03-03T07:59:45;7.20;99.90
22850;DHT22;11591;44.792;10.358;2023-03-03T08:02:40;7.20;99.90
22850;DHT22;11591;44.792;10.358;2023-03-03T08:08:18;7.40;99.90
22850;DHT22;11591;44.792;10.358;2023-03-03T08:10:54;7.40;99.90
22850;DHT22;11591;44.792;10.358;2023-03-03T08:13:21;7.50;99.90
22850;DHT22;11591;44.792;10.358;2023-03-03T08:18:35;7.60;99.90
22850;DHT22;11591;44.792;10.358;2023-03-03T08:21:17;7.70;99.90
22850;DHT22;11591;44.792;10.358;2023-03-03T08:23:43;7.80;99.90
22850;DHT22;11591;44.792;10.358;2023-03-03T08:26:10;7.80;99.90
22850;DHT22;11591;44.792;10.358;2023-03-03T08:28:37;7.90;99.90
22850;DHT22;11591;44.792;10.358;2023-03-03T08:31:03;7.90;99.90
22850;DHT22;11591;44.792;10.358;2023-03-03T08:33:29;8.00;99.90
22850;DHT22;11591;44.792;10.358;2023-03-03T08:35:54;8.10;99.90
22850;DHT22;11591;44.792;10.358;2023-03-03T08:38:21;8.10;99.90
22850;DHT22;11591;44.792;10.358;2023-03-03T08:40:47;8.20;99.90
22850;DHT22;11591;44.792;10.358;2023-03-03T08:43:14;8.20;99.90
22850;DHT22;11591;44.792;10.358;2023-03-03T08:45:45;8.30;99.90
22850;DHT22;11591;44.792;10.358;2023-03-03T08:48:12;8.40;99.90
22850;DHT22;11591;44.792;10.358;2023-03-03T08:50:39;8.40;99.90
22850;DHT22;11591;44.792;10.358;2023-03-03T08:53:05;8.50;99.90
22850;DHT22;11591;44.792;10.358;2023-03-03T08:55:31;8.60;99.90
22850;DHT22;11591;44.792;10.358;2023-03-03T08:57:57;8.60;99.90
22850;DHT22;11591;44.792;10.358;2023-03-03T09:00:23;8.70;99.90
22850;DHT22;11591;44.792;10.358;2023-03-03T09:02:50;8.70;99.90
22850;DHT22;11591;44.792;10.358;2023-03-03T09:05:17;8.70;99.90
22850;DHT22;11591;44.792;10.358;2023-03-03T09:07:45;8.80;99.90
22850;DHT22;11591;44.792;10.358;2023-03-03T09:10:13;8.80;99.90
22850;DHT22;11591;44.792;10.358;2023-03-03T09:12:44;8.80;99.90
22850;DHT22;11591;44.792;10.358;2023-03-03T09:15:20;8.90;99.90
22850;DHT22;11591;44.792;10.358;2023-03-03T09:17:48;8.90;99.90
22850;DHT22;11591;44.792;10.358;2023-03-03T09:22:44;9.00;99.90
22850;DHT22;11591;44.792;10.358;2023-03-03T09:27:53;9.20;99.90
22850;DHT22;11591;44.792;10.358;2023-03-03T09:32:52;9.30;99.90
22850;DHT22;11591;44.792;10.358;2023-03-03T09:35:37;9.30;99.90
22850;DHT22;11591;44.792;10.358;2023-03-03T09:38:32;9.40;99.90
22850;DHT22;11591;44.792;10.358;2023-03-03T09:41:15;9.40;99.90
22850;DHT22;11591;44.792;10.358;2023-03-03T09:49:50;9.60;99.90
22850;DHT22;11591;44.792;10.358;2023-03-03T09:58:03;9.80;99.90
22850;DHT22;11591;44.792;10.358;2023-03-03T10:03:25;9.90;99.90
22850;DHT22;11591;44.792;10.358;2023-03-03T10:06:17;9.80;99.90
22850;DHT22;11591;44.792;10.358;2023-03-03T10:11:28;9.90;99.90
22850;DHT22;11591;44.792;10.358;2023-03-03T10:19:53;10.10;99.90
22850;DHT22;11591;44.792;10.358;2023-03-03T10:22:28;10.10;99.90
22850;DHT22;11591;44.792;10.358;2023-03-03T10:25:14;10.20;99.90
22850;DHT22;11591;44.792;10.358;2023-03-03T10:27:58;10.30;99.90
22850;DHT22;11591;44.792;10.358;2023-03-03T10:31:14;10.40;99.90
22850;DHT22;11591;44.792;10.358;2023-03-03T10:39:38;10.70;99.90
22850;DHT22;11591;44.792;10.358;2023-03-03T10:42:25;10.70;99.90
22850;DHT22;11591;44.792;10.358;2023-03-03T10:53:26;10.90;99.90
22850;DHT22;11591;44.792;10.358;2023-03-03T10:59:03;11.10;99.90
22850;DHT22;11591;44.792;10.358;2023-03-03T11:01:57;11.00;99.90
22850;DHT22;11591;44.792;10.358;2023-03-03T11:07:12;11.00;99.90
22850;DHT22;11591;44.792;10.358;2023-03-03T11:10:02;11.00;99.90
22850;DHT22;11591;44.792;10.358;2023-03-03T11:26:32;11.10;99.90
22850;DHT22;11591;44.792;10.358;2023-03-03T11:31:59;11.10;99.90
22850;DHT22;11591;44.792;10.358;2023-03-03T11:37:57;11.10;99.90
22850;DHT22;11591;44.792;10.358;2023-03-03T11:40:46;11.20;99.90
22850;DHT22;11591;44.792;10.358;2023-03-03T11:45:44;11.30;99.90
22850;DHT22;11591;44.792;10.358;2023-03-03T11:48:24;11.40;99.90
22850;DHT22;11591;44.792;10.358;2023-03-03T11:50:57;11.40;99.90
22850;DHT22;11591;44.792;10.358;2023-03-03T11:56:21;11.50;99.90
22850;DHT22;11591;44.792;10.358;2023-03-03T12:02:42;11.70;99.90
22850;DHT22;11591;44.792;10.358;2023-03-03T12:04:55;11.70;99.90
22850;DHT22;11591;44.792;10.358;2023-03-03T12:07:45;11.80;99.90
22850;DHT22;11591;44.792;10.358;2023-03-03T12:13:02;12.00;99.90
22850;DHT22;11591;44.792;10.358;2023-03-03T12:21:06;12.20;99.90
22850;DHT22;11591;44.792;10.358;2023-03-03T12:23:45;12.30;99.90
22850;DHT22;11591;44.792;10.358;2023-03-03T12:29:26;12.40;99.90
22850;DHT22;11591;44.792;10.358;2023-03-03T12:40:18;12.60;99.90
22850;DHT22;11591;44.792;10.358;2023-03-03T12:48:16;12.90;99.90
22850;DHT22;11591;44.792;10.358;2023-03-03T12:50:51;12.90;99.90
22850;DHT22;11591;44.792;10.358;2023-03-03T12:56:10;13.10;99.90
22850;DHT22;11591;44.792;10.358;2023-03-03T13:04:04;13.30;99.90
22850;DHT22;11591;44.792;10.358;2023-03-03T13:06:49;13.40;99.90
22850;DHT22;11591;44.792;10.358;2023-03-03T13:15:02;13.60;99.90
22850;DHT22;11591;44.792;10.358;2023-03-03T13:18:08;13.70;99.90
22850;DHT22;11591;44.792;10.358;2023-03-03T13:26:25;13.90;99.90
22850;DHT22;11591;44.792;10.358;2023-03-03T13:31:36;14.10;99.90
22850;DHT22;11591;44.792;10.358;2023-03-03T13:34:02;14.20;99.90
22850;DHT22;11591;44.792;10.358;2023-03-03T13:36:42;14.40;99.90
22850;DHT22;11591;44.792;10.358;2023-03-03T13:42:02;15.30;99.90
22850;DHT22;11591;44.792;10.358;2023-03-03T13:44:39;16.00;99.90
22850;DHT22;11591;44.792;10.358;2023-03-03T13:47:23;17.00;99.90
22850;DHT22;11591;44.792;10.358;2023-03-03T13:55:43;19.50;99.90
22850;DHT22;11591;44.792;10.358;2023-03-03T14:07:27;20.90;99.90
22850;DHT22;11591;44.792;10.358;2023-03-03T14:12:41;21.40;99.90
22850;DHT22;11591;44.792;10.358;2023-03-03T14:15:21;21.50;99.90
22850;DHT22;11591;44.792;10.358;2023-03-03T14:20:55;21.20;99.90
22850;DHT22;11591;44.792;10.358;2023-03-03T14:23:49;21.20;99.90
22850;DHT22;11591;44.792;10.358;2023-03-03T14:26:18;21.20;99.90
22850;DHT22;11591;44.792;10.358;2023-03-03T14:28:46;21.30;99.90
22850;DHT22;11591;44.792;10.358;2023-03-03T14:31:38;21.40;99.90
22850;DHT22;11591;44.792;10.358;2023-03-03T14:36:49;21.20;99.90
22850;DHT22;11591;44.792;10.358;2023-03-03T14:39:37;21.30;99.90
22850;DHT22;11591;44.792;10.358;2023-03-03T14:42:12;21.50;99.90
22850;DHT22;11591;44.792;10.358;2023-03-03T14:47:17;21.70;99.90
22850;DHT22;11591;44.792;10.358;2023-03-03T14:49:44;21.50;99.90
22850;DHT22;11591;44.792;10.358;2023-03-03T14:54:57;21.40;99.90
22850;DHT22;11591;44.792;10.358;2023-03-03T14:57:42;21.70;99.90
22850;DHT22;11591;44.792;10.358;2023-03-03T15:02:43;21.80;99.90
22850;DHT22;11591;44.792;10.358;2023-03-03T15:05:28;22.00;99.90
22850;DHT22;11591;44.792;10.358;2023-03-03T15:08:06;21.90;99.90
22850;DHT22;11591;44.792;10.358;2023-03-03T15:10:38;21.70;99.90
22850;DHT22;11591;44.792;10.358;2023-03-03T15:16:31;21.60;99.90
22850;DHT22;11591;44.792;10.358;2023-03-03T15:21:32;21.40;99.90
22850;DHT22;11591;44.792;10.358;2023-03-03T15:24:11;21.30;99.90
22850;DHT22;11591;44.792;10.358;2023-03-03T15:26:48;21.20;99.90
22850;DHT22;11591;44.792;10.358;2023-03-03T15:29:38;20.80;99.90
22850;DHT22;11591;44.792;10.358;2023-03-03T15:32:07;20.80;99.90
22850;DHT22;11591;44.792;10.358;2023-03-03T15:34:44;20.70;99.90
22850;DHT22;11591;44.792;10.358;2023-03-03T15:51:30;19.50;99.90
22850;DHT22;11591;44.792;10.358;2023-03-03T15:56:51;19.30;99.90
22850;DHT22;11591;44.792;10.358;2023-03-03T16:02:17;19.30;99.90
22850;DHT22;11591;44.792;10.358;2023-03-03T16:05:24;19.30;99.90
22850;DHT22;11591;44.792;10.358;2023-03-03T16:16:27;18.90;99.90
22850;DHT22;11591;44.792;10.358;2023-03-03T16:24:38;18.20;99.90
22850;DHT22;11591;44.792;10.358;2023-03-03T16:30:19;17.70;99.90
22850;DHT22;11591;44.792;10.358;2023-03-03T16:35:38;17.40;99.90
22850;DHT22;11591;44.792;10.358;2023-03-03T16:38:25;17.20;99.90
22850;DHT22;11591;44.792;10.358;2023-03-03T16:40:58;17.10;99.90
22850;DHT22;11591;44.792;10.358;2023-03-03T16:48:50;16.80;99.90
22850;DHT22;11591;44.792;10.358;2023-03-03T16:56:58;16.30;99.90
22850;DHT22;11591;44.792;10.358;2023-03-03T17:04:57;15.80;99.90
22850;DHT22;11591;44.792;10.358;2023-03-03T17:10:20;15.50;99.90
22850;DHT22;11591;44.792;10.358;2023-03-03T17:20:59;14.90;99.90
22850;DHT22;11591;44.792;10.358;2023-03-03T17:26:22;14.80;99.90
22850;DHT22;11591;44.792;10.358;2023-03-03T17:31:39;14.60;99.90
22850;DHT22;11591;44.792;10.358;2023-03-03T17:37:29;14.40;99.90
22850;DHT22;11591;44.792;10.358;2023-03-03T17:40:20;14.30;99.90
22850;DHT22;11591;44.792;10.358;2023-03-03T17:43:01;14.30;99.90
22850;DHT22;11591;44.792;10.358;2023-03-03T17:45:34;14.20;99.90
22850;DHT22;11591;44.792;10.358;2023-03-03T17:56:14;14.00;99.90
22850;DHT22;11591;44.792;10.358;2023-03-03T18:15:13;13.50;99.90
22850;DHT22;11591;44.792;10.358;2023-03-03T18:17:48;13.40;99.90
22850;DHT22;11591;44.792;10.358;2023-03-03T18:26:04;13.40;99.90
22850;DHT22;11591;44.792;10.358;2023-03-03T18:28:49;13.30;99.90
22850;DHT22;11591;44.792;10.358;2023-03-03T18:31:23;13.30;99.90
22850;DHT22;11591;44.792;10.358;2023-03-03T18:34:08;13.20;99.90
22850;DHT22;11591;44.792;10.358;2023-03-03T18:39:45;13.00;99.90
22850;DHT22;11591;44.792;10.358;2023-03-03T18:44:41;12.90;99.90
22850;DHT22;11591;44.792;10.358;2023-03-03T18:47:07;12.90;99.90
22850;DHT22;11591;44.792;10.358;2023-03-03T18:57:34;12.60;99.90
22850;DHT22;11591;44.792;10.358;2023-03-03T19:00:23;12.60;99.90
22850;DHT22;11591;44.792;10.358;2023-03-03T19:02:53;12.50;99.90
22850;DHT22;11591;44.792;10.358;2023-03-03T19:16:00;12.60;99.90
22850;DHT22;11591;44.792;10.358;2023-03-03T19:18:27;12.50;99.90
22850;DHT22;11591;44.792;10.358;2023-03-03T19:21:30;12.50;99.90
22850;DHT22;11591;44.792;10.358;2023-03-03T19:40:56;11.80;99.90
22850;DHT22;11591;44.792;10.358;2023-03-03T19:43:49;11.70;99.90
22850;DHT22;11591;44.792;10.358;2023-03-03T20:00:26;11.40;99.90
22850;DHT22;11591;44.792;10.358;2023-03-03T20:08:30;11.30;99.90
22850;DHT22;11591;44.792;10.358;2023-03-03T20:11:06;11.20;99.90
22850;DHT22;11591;44.792;10.358;2023-03-03T20:13:53;11.20;99.90
22850;DHT22;11591;44.792;10.358;2023-03-03T20:16:41;11.20;99.90
22850;DHT22;11591;44.792;10.358;2023-03-03T20:22:10;11.20;99.90
22850;DHT22;11591;44.792;10.358;2023-03-03T20:24:49;11.20;99.90
22850;DHT22;11591;44.792;10.358;2023-03-03T20:27:23;11.20;99.90
22850;DHT22;11591;44.792;10.358;2023-03-03T20:30:08;11.20;99.90
22850;DHT22;11591;44.792;10.358;2023-03-03T20:33:01;11.20;99.90
22850;DHT22;11591;44.792;10.358;2023-03-03T20:39:05;11.20;99.90
22850;DHT22;11591;44.792;10.358;2023-03-03T20:54:42;11.10;99.90
22850;DHT22;11591;44.792;10.358;2023-03-03T21:02:42;11.20;99.90
22850;DHT22;11591;44.792;10.358;2023-03-03T21:05:20;11.10;99.90
22850;DHT22;11591;44.792;10.358;2023-03-03T21:07:55;11.10;99.90
22850;DHT22;11591;44.792;10.358;2023-03-03T21:10:24;11.10;99.90
22850;DHT22;11591;44.792;10.358;2023-03-03T21:12:56;11.00;99.90
22850;DHT22;11591;44.792;10.358;2023-03-03T21:17:50;11.10;99.90
22850;DHT22;11591;44.792;10.358;2023-03-03T21:22:50;11.10;99.90
22850;DHT22;11591;44.792;10.358;2023-03-03T21:25:47;11.10;99.90
22850;DHT22;11591;44.792;10.358;2023-03-03T21:28:22;11.00;99.90
22850;DHT22;11591;44.792;10.358;2023-03-03T21:31:17;10.90;99.90
22850;DHT22;11591;44.792;10.358;2023-03-03T21:33:52;10.90;99.90
22850;DHT22;11591;44.792;10.358;2023-03-03T21:38:56;10.80;99.90
22850;DHT22;11591;44.792;10.358;2023-03-03T21:41:23;10.70;99.90
22850;DHT22;11591;44.792;10.358;2023-03-03T21:43:51;10.70;99.90
22850;DHT22;11591;44.792;10.358;2023-03-03T21:46:23;10.70;99.90
22850;DHT22;11591;44.792;10.358;2023-03-03T21:48:50;10.60;99.90
22850;DHT22;11591;44.792;10.358;2023-03-03T21:51:15;10.60;99.90
22850;DHT22;11591;44.792;10.358;2023-03-03T21:53:43;10.50;99.90
22850;DHT22;11591;44.792;10.358;2023-03-03T21:56:09;10.50;99.90
22850;DHT22;11591;44.792;10.358;2023-03-03T21:58:36;10.40;99.90
22850;DHT22;11591;44.792;10.358;2023-03-03T22:01:04;10.40;99.90
22850;DHT22;11591;44.792;10.358;2023-03-03T22:03:30;10.40;99.90
22850;DHT22;11591;44.792;10.358;2023-03-03T22:05:57;10.40;99.90
22850;DHT22;11591;44.792;10.358;2023-03-03T22:08:22;10.30;99.90
22850;DHT22;11591;44.792;10.358;2023-03-03T22:10:49;10.30;99.90
22850;DHT22;11591;44.792;10.358;2023-03-03T22:13:18;10.30;99.90
22850;DHT22;11591;44.792;10.358;2023-03-03T22:15:48;10.30;99.90
22850;DHT22;11591;44.792;10.358;2023-03-03T22:18:15;10.20;99.90
22850;DHT22;11591;44.792;10.358;2023-03-03T22:20:44;10.20;99.90
22850;DHT22;11591;44.792;10.358;2023-03-03T22:23:10;10.10;99.90
22850;DHT22;11591;44.792;10.358;2023-03-03T22:25:36;10.20;99.90
22850;DHT22;11591;44.792;10.358;2023-03-03T22:28:02;10.20;99.90
22850;DHT22;11591;44.792;10.358;2023-03-03T22:30:28;10.10;99.90
22850;DHT22;11591;44.792;10.358;2023-03-03T22:32:54;10.10;99.90
22850;DHT22;11591;44.792;10.358;2023-03-03T22:35:20;10.10;99.90
22850;DHT22;11591;44.792;10.358;2023-03-03T22:37:46;10.10;99.90
22850;DHT22;11591;44.792;10.358;2023-03-03T22:40:12;10.00;99.90
22850;DHT22;11591;44.792;10.358;2023-03-03T22:42:38;10.00;99.90
22850;DHT22;11591;44.792;10.358;2023-03-03T22:45:04;10.10;99.90
22850;DHT22;11591;44.792;10.358;2023-03-03T22:47:30;9.90;99.90